createdAt,value
2023-02-11T00:01:05.983Z,6.14
2023-02-11T00:03:32.641Z,6.72
2023-02-11T00:06:01.032Z,8.27
2023-02-11T00:08:28.088Z,7.82
2023-02-11T00:10:56.720Z,6.93
2023-02-11T00:13:24.621Z,6.26
2023-02-11T00:15:51.593Z,6.14
2023-02-11T00:18:18.390Z,7.71
2023-02-11T00:20:45.260Z,7.84
2023-02-11T00:23:12.081Z,6.97
2023-02-11T00:25:43.318Z,6.29
2023-02-11T00:28:10.847Z,6.02
2023-02-11T00:30:37.834Z,7.50
2023-02-11T00:33:04.598Z,8.38
2023-02-11T00:35:31.225Z,7.48
2023-02-11T00:37:57.854Z,6.66
2023-02-11T00:40:24.392Z,6.08
2023-02-11T00:42:50.959Z,6.09
2023-02-11T00:45:18.180Z,7.76
2023-02-11T00:47:44.721Z,8.40
2023-02-11T00:50:11.256Z,7.45
2023-02-11T00:52:37.857Z,6.66
2023-02-11T00:55:04.902Z,6.08
2023-02-11T00:57:31.669Z,6.24
2023-02-11T00:59:58.310Z,7.95
2023-02-11T01:02:24.840Z,8.02
2023-02-11T01:04:51.552Z,7.09
2023-02-11T01:07:18.268Z,6.39
2023-02-11T01:09:44.848Z,5.90
2023-02-11T01:12:11.508Z,5.98
2023-02-11T01:14:38.087Z,7.68
2023-02-11T01:17:05.948Z,8.10
2023-02-11T01:19:32.789Z,7.17
2023-02-11T01:21:59.408Z,6.45
2023-02-11T01:24:26.085Z,5.93
2023-02-11T01:26:52.687Z,6.01
2023-02-11T01:29:19.394Z,7.64
2023-02-11T01:31:46.232Z,7.82
2023-02-11T01:34:13.277Z,6.91
2023-02-11T01:36:40.466Z,6.21
2023-02-11T01:39:08.194Z,5.71
2023-02-11T01:41:35.324Z,5.90
2023-02-11T01:44:28.702Z,7.57
2023-02-11T01:46:55.534Z,7.71
2023-02-11T01:49:30.591Z,6.78
2023-02-11T01:52:08.241Z,6.07
2023-02-11T01:55:00.434Z,5.70
2023-02-11T01:57:29.826Z,7.17
2023-02-11T02:00:23.907Z,7.86
2023-02-11T02:03:07.310Z,6.87
2023-02-11T02:05:44.569Z,6.11
2023-02-11T02:08:25.411Z,5.60
2023-02-11T02:10:55.759Z,6.23
2023-02-11T02:13:23.580Z,7.73
2023-02-11T02:16:00.635Z,7.29
2023-02-11T02:18:49.188Z,6.42
2023-02-11T02:21:55.779Z,5.76
2023-02-11T02:24:28.220Z,5.48
2023-02-11T02:27:06.799Z,6.95
2023-02-11T02:30:26.525Z,7.46
2023-02-11T02:33:05.836Z,6.37
2023-02-11T02:36:01.084Z,5.73
2023-02-11T02:38:40.114Z,5.46
2023-02-11T02:41:13.792Z,6.93
2023-02-11T02:43:44.091Z,7.91
2023-02-11T02:46:23.973Z,7.09
2023-02-11T02:48:52.787Z,6.24
2023-02-11T02:51:59.907Z,5.71
2023-02-11T02:55:03.741Z,5.47
2023-02-11T02:57:43.001Z,7.27
2023-02-11T03:00:34.076Z,7.82
2023-02-11T03:03:37.321Z,6.78
2023-02-11T03:06:13.635Z,5.94
2023-02-11T03:08:48.007Z,5.46
2023-02-11T03:11:17.914Z,5.36
2023-02-11T03:13:45.681Z,6.85
2023-02-11T03:16:20.736Z,7.44
2023-02-11T03:18:53.100Z,6.56
2023-02-11T03:21:19.772Z,5.86
2023-02-11T03:23:53.962Z,5.39
2023-02-11T03:26:49.520Z,5.49
2023-02-11T03:29:39.164Z,7.40
2023-02-11T03:32:21.604Z,7.64
2023-02-11T03:34:54.126Z,6.63
2023-02-11T03:37:56.668Z,5.95
2023-02-11T03:40:28.992Z,5.40
2023-02-11T03:43:03.186Z,5.79
2023-02-11T03:45:29.962Z,7.50
2023-02-11T03:48:08.806Z,7.52
2023-02-11T03:50:35.816Z,6.59
2023-02-11T03:53:03.470Z,5.95
2023-02-11T03:55:32.990Z,5.50
2023-02-11T03:57:59.591Z,5.65
2023-02-11T04:00:32.071Z,7.37
2023-02-11T04:02:58.613Z,7.54
2023-02-11T04:05:25.698Z,6.65
2023-02-11T04:07:52.259Z,5.98
2023-02-11T04:10:19.113Z,5.61
2023-02-11T04:12:45.706Z,6.76
2023-02-11T04:15:12.529Z,8.04
2023-02-11T04:17:40.160Z,7.39
2023-02-11T04:20:07.781Z,6.52
2023-02-11T04:22:34.356Z,5.91
2023-02-11T04:25:00.888Z,5.73
2023-02-11T04:27:27.500Z,7.21
2023-02-11T04:29:54.068Z,7.98
2023-02-11T04:32:20.786Z,7.11
2023-02-11T04:34:47.847Z,6.32
2023-02-11T04:37:14.723Z,6.09
2023-02-11T04:39:41.270Z,7.60
2023-02-11T04:42:08.104Z,8.18
2023-02-11T04:44:34.677Z,7.23
2023-02-11T04:47:01.287Z,6.46
2023-02-11T04:49:27.869Z,6.21
2023-02-11T04:51:54.600Z,7.72
2023-02-11T04:54:21.491Z,8.21
2023-02-11T04:56:49.064Z,7.26
2023-02-11T04:59:15.648Z,6.45
2023-02-11T05:01:42.608Z,5.99
2023-02-11T05:04:09.327Z,7.09
2023-02-11T05:06:38.950Z,8.34
2023-02-11T05:09:05.780Z,7.56
2023-02-11T05:11:32.432Z,6.72
2023-02-11T05:13:59.230Z,6.22
2023-02-11T05:16:25.908Z,7.35
2023-02-11T05:18:54.906Z,8.58
2023-02-11T05:21:21.707Z,7.84
2023-02-11T05:23:48.434Z,6.95
2023-02-11T05:26:15.175Z,6.42
2023-02-11T05:28:42.252Z,7.53
2023-02-11T05:31:09.353Z,8.68
2023-02-11T05:33:36.223Z,7.87
2023-02-11T05:36:07.857Z,7.00
2023-02-11T05:38:35.657Z,6.62
2023-02-11T05:41:03.698Z,8.03
2023-02-11T05:43:31.001Z,9.09
2023-02-11T05:45:57.822Z,8.17
2023-02-11T05:48:24.340Z,7.23
2023-02-11T05:50:51.015Z,6.91
2023-02-11T05:53:17.645Z,8.38
2023-02-11T05:55:44.499Z,8.77
2023-02-11T05:58:11.242Z,7.78
2023-02-11T06:00:37.975Z,7.04
2023-02-11T06:03:07.703Z,7.95
2023-02-11T06:05:34.308Z,9.20
2023-02-11T06:08:01.034Z,8.39
2023-02-11T06:10:27.845Z,7.45
2023-02-11T06:12:54.420Z,7.46
2023-02-11T06:15:21.030Z,9.00
2023-02-11T06:17:47.617Z,8.82
2023-02-11T06:20:14.834Z,7.82
2023-02-11T06:22:41.396Z,7.51
2023-02-11T06:25:08.403Z,8.96
2023-02-11T06:27:34.980Z,9.09
2023-02-11T06:30:01.789Z,8.06
2023-02-11T06:32:43.301Z,7.42
2023-02-11T06:35:13.052Z,8.75
2023-02-11T06:37:40.986Z,9.70
2023-02-11T06:40:08.470Z,8.77
2023-02-11T06:42:35.639Z,7.81
2023-02-11T06:45:05.404Z,7.70
2023-02-11T06:47:32.119Z,9.32
2023-02-11T06:49:58.674Z,9.72
2023-02-11T06:52:25.331Z,8.68
2023-02-11T06:54:51.907Z,7.85
2023-02-11T06:57:18.509Z,8.65
2023-02-11T06:59:45.142Z,9.95
2023-02-11T07:02:11.854Z,9.25
2023-02-11T07:04:38.457Z,8.29
2023-02-11T07:07:05.056Z,8.06
2023-02-11T07:09:31.795Z,9.60
2023-02-11T07:11:58.398Z,9.89
2023-02-11T07:14:25.021Z,8.83
2023-02-11T07:16:51.551Z,8.18
2023-02-11T07:19:18.072Z,9.37
2023-02-11T07:21:44.630Z,10.28
2023-02-11T07:24:12.507Z,9.33
2023-02-11T07:26:39.436Z,8.46
2023-02-11T07:29:06.088Z,9.26
2023-02-11T07:31:32.945Z,10.47
2023-02-11T07:34:01.509Z,9.70
2023-02-11T07:36:31.136Z,8.68
2023-02-11T07:38:58.117Z,8.97
2023-02-11T07:41:25.734Z,10.53
2023-02-11T07:43:52.598Z,10.41
2023-02-11T07:46:23.157Z,9.29
2023-02-11T07:48:49.989Z,8.60
2023-02-11T07:51:26.081Z,9.76
2023-02-11T07:53:54.778Z,10.63
2023-02-11T07:56:22.012Z,9.62
2023-02-11T07:58:49.456Z,8.68
2023-02-11T08:01:24.351Z,8.96
2023-02-11T08:03:51.483Z,10.65
2023-02-11T08:06:20.413Z,10.62
2023-02-11T08:08:47.172Z,9.48
2023-02-11T08:11:28.291Z,8.73
2023-02-11T08:13:56.009Z,9.88
2023-02-11T08:16:29.223Z,10.52
2023-02-11T08:18:58.646Z,9.48
2023-02-11T08:21:25.726Z,8.76
2023-02-11T08:23:52.595Z,9.93
2023-02-11T08:26:26.165Z,10.76
2023-02-11T08:28:54.265Z,9.77
2023-02-11T08:31:27.500Z,8.86
2023-02-11T08:33:57.214Z,9.08
2023-02-11T08:36:28.790Z,10.66
2023-02-11T08:39:08.546Z,10.43
2023-02-11T08:41:38.993Z,9.32
2023-02-11T08:44:05.672Z,8.63
2023-02-11T08:46:32.272Z,9.47
2023-02-11T08:48:59.057Z,10.82
2023-02-11T08:51:29.731Z,10.18
2023-02-11T08:53:57.065Z,9.18
2023-02-11T08:56:24.441Z,9.31
2023-02-11T08:58:51.729Z,10.77
2023-02-11T09:01:25.323Z,10.56
2023-02-11T09:03:52.556Z,9.56
2023-02-11T09:06:20.433Z,9.05
2023-02-11T09:08:49.936Z,10.34
2023-02-11T09:11:20.061Z,11.06
2023-02-11T09:13:47.197Z,10.07
2023-02-11T09:16:20.858Z,9.18
2023-02-11T09:18:48.124Z,9.70
2023-02-11T09:21:16.809Z,11.02
2023-02-11T09:23:44.269Z,10.43
2023-02-11T09:26:19.007Z,9.44
2023-02-11T09:28:46.065Z,9.25
2023-02-11T09:31:20.092Z,10.75
2023-02-11T09:33:49.626Z,11.00
2023-02-11T09:36:20.910Z,9.92
2023-02-11T09:38:48.470Z,9.40
2023-02-11T09:41:52.133Z,10.72
2023-02-11T09:44:27.152Z,10.81
2023-02-11T09:47:00.857Z,9.72
2023-02-11T09:49:40.615Z,9.75
2023-02-11T09:52:29.933Z,11.28
2023-02-11T09:55:00.191Z,10.91
2023-02-11T09:57:35.998Z,9.83
2023-02-11T10:00:20.994Z,9.43
2023-02-11T10:03:18.546Z,11.08
2023-02-11T10:06:33.823Z,11.23
2023-02-11T10:09:31.577Z,9.87
2023-02-11T10:12:34.605Z,9.93
2023-02-11T10:15:08.021Z,11.47
2023-02-11T10:18:07.077Z,10.63
2023-02-11T10:21:19.937Z,9.66
2023-02-11T10:23:51.157Z,11.07
2023-02-11T10:26:19.230Z,11.19
2023-02-11T10:28:50.422Z,10.16
2023-02-11T10:31:37.229Z,9.81
2023-02-11T10:34:18.506Z,11.33
2023-02-11T10:36:45.832Z,10.96
2023-02-11T10:39:25.740Z,9.97
2023-02-11T10:41:57.160Z,10.32
2023-02-11T10:44:52.819Z,11.61
2023-02-11T10:47:23.985Z,10.74
2023-02-11T10:49:50.556Z,9.84
2023-02-11T10:52:17.025Z,10.59
2023-02-11T10:55:05.023Z,11.83
2023-02-11T10:58:01.043Z,11.00
2023-02-11T11:00:42.313Z,9.99
2023-02-11T11:03:24.709Z,11.13
2023-02-11T11:05:57.423Z,11.94
2023-02-11T11:08:40.381Z,10.88
2023-02-11T11:11:10.376Z,10.41
2023-02-11T11:13:59.305Z,11.84
2023-02-11T11:16:34.429Z,11.81
2023-02-11T11:19:07.114Z,10.70
2023-02-11T11:21:42.507Z,10.64
2023-02-11T11:24:26.890Z,12.11
2023-02-11T11:27:03.294Z,11.69
2023-02-11T11:29:51.771Z,10.68
2023-02-11T11:32:32.342Z,11.58
2023-02-11T11:35:03.018Z,12.39
2023-02-11T11:37:32.784Z,11.35
2023-02-11T11:40:16.693Z,10.79
2023-02-11T11:42:43.649Z,12.23
2023-02-11T11:45:19.184Z,12.24
2023-02-11T11:47:57.526Z,11.08
2023-02-11T11:50:30.474Z,11.19
2023-02-11T11:53:37.390Z,12.49
2023-02-11T11:56:18.247Z,11.56
2023-02-11T11:58:45.025Z,10.79
2023-02-11T12:02:08.916Z,11.98
2023-02-11T12:05:10.254Z,12.27
2023-02-11T12:08:16.622Z,10.94
2023-02-11T12:11:25.636Z,11.59
2023-02-11T12:14:22.904Z,12.24
2023-02-11T12:17:29.875Z,10.96
2023-02-11T12:20:04.910Z,11.49
2023-02-11T12:22:40.732Z,12.52
2023-02-11T12:25:29.362Z,11.50
2023-02-11T12:28:30.434Z,11.08
2023-02-11T12:31:13.107Z,12.67
2023-02-11T12:34:23.410Z,12.16
2023-02-11T12:37:14.829Z,10.98
2023-02-11T12:39:58.972Z,12.32
2023-02-11T12:42:52.717Z,12.80
2023-02-11T12:46:08.114Z,11.44
2023-02-11T12:49:32.900Z,12.04
2023-02-11T12:52:24.697Z,12.80
2023-02-11T12:54:58.355Z,11.44
2023-02-11T12:57:31.864Z,11.68
2023-02-11T13:00:30.982Z,13.07
2023-02-11T13:03:23.565Z,12.35
2023-02-11T13:06:09.508Z,11.40
2023-02-11T13:08:45.780Z,12.74
2023-02-11T13:11:21.003Z,12.97
2023-02-11T13:14:05.965Z,11.72
2023-02-11T13:16:40.917Z,11.97
2023-02-11T13:19:13.552Z,13.28
2023-02-11T13:21:49.033Z,12.67
2023-02-11T13:24:27.480Z,11.55
2023-02-11T13:27:01.361Z,12.26
2023-02-11T13:30:04.633Z,13.34
2023-02-11T13:32:53.030Z,12.15
2023-02-11T13:35:40.010Z,11.78
2023-02-11T13:38:30.140Z,13.21
2023-02-11T13:41:14.157Z,12.99
2023-02-11T13:43:41.077Z,11.72
2023-02-11T13:46:11.246Z,12.17
2023-02-11T13:48:48.484Z,13.43
2023-02-11T13:51:18.317Z,13.00
2023-02-11T13:53:57.994Z,11.84
2023-02-11T13:56:36.340Z,12.39
2023-02-11T13:59:38.382Z,13.53
2023-02-11T14:02:44.214Z,12.40
2023-02-11T14:06:27.802Z,11.95
2023-02-11T14:09:08.573Z,13.69
2023-02-11T14:11:41.280Z,12.90
2023-02-11T14:14:07.686Z,11.77
2023-02-11T14:16:38.354Z,12.46
2023-02-11T14:19:05.492Z,13.61
2023-02-11T14:21:38.179Z,12.83
2023-02-11T14:24:06.428Z,11.93
2023-02-11T14:26:54.213Z,12.85
2023-02-11T14:29:58.795Z,13.89
2023-02-11T14:32:56.206Z,12.53
2023-02-11T14:35:38.952Z,11.87
2023-02-11T14:38:16.557Z,13.24
2023-02-11T14:41:00.772Z,13.82
2023-02-11T14:43:33.972Z,12.50
2023-02-11T14:46:00.964Z,11.82
2023-02-11T14:48:34.632Z,12.93
2023-02-11T14:51:15.274Z,13.68
2023-02-11T14:53:50.742Z,12.59
2023-02-11T14:56:25.729Z,12.00
2023-02-11T14:58:54.440Z,13.24
2023-02-11T15:01:48.856Z,13.62
2023-02-11T15:04:44.729Z,12.30
2023-02-11T15:07:12.858Z,12.20
2023-02-11T15:09:53.366Z,13.55
2023-02-11T15:12:24.220Z,13.67
2023-02-11T15:14:54.747Z,12.45
2023-02-11T15:17:29.284Z,11.99
2023-02-11T15:20:00.121Z,13.30
2023-02-11T15:22:32.268Z,13.96
2023-02-11T15:25:07.892Z,12.86
2023-02-11T15:27:53.448Z,11.90
2023-02-11T15:30:23.112Z,12.96
2023-02-11T15:33:04.769Z,14.14
2023-02-11T15:35:39.216Z,13.26
2023-02-11T15:38:07.372Z,12.15
2023-02-11T15:40:36.611Z,12.83
2023-02-11T15:43:04.249Z,14.08
2023-02-11T15:45:33.041Z,13.38
2023-02-11T15:48:15.914Z,12.28
2023-02-11T15:50:49.839Z,12.94
2023-02-11T15:53:22.483Z,14.07
2023-02-11T15:55:51.567Z,13.19
2023-02-11T15:58:18.615Z,12.15
2023-02-11T16:00:50.205Z,12.73
2023-02-11T16:03:28.166Z,14.17
2023-02-11T16:05:55.986Z,14.06
2023-02-11T16:08:32.266Z,12.82
2023-02-11T16:11:07.898Z,12.01
2023-02-11T16:13:47.047Z,13.14
2023-02-11T16:16:33.337Z,14.12
2023-02-11T16:19:05.221Z,12.97
2023-02-11T16:21:41.893Z,12.15
2023-02-11T16:24:24.302Z,13.23
2023-02-11T16:26:53.421Z,14.24
2023-02-11T16:29:28.964Z,13.27
2023-02-11T16:32:21.972Z,12.18
2023-02-11T16:34:49.035Z,12.84
2023-02-11T16:37:15.723Z,14.22
2023-02-11T16:39:42.569Z,14.00
2023-02-11T16:42:12.351Z,12.82
2023-02-11T16:44:39.162Z,12.02
2023-02-11T16:47:10.274Z,12.89
2023-02-11T16:49:40.653Z,14.28
2023-02-11T16:52:13.164Z,13.88
2023-02-11T16:54:40.563Z,12.69
2023-02-11T16:57:16.241Z,12.22
2023-02-11T16:59:44.227Z,13.55
2023-02-11T17:02:32.594Z,14.24
2023-02-11T17:05:03.407Z,13.08
2023-02-11T17:07:30.328Z,12.18
2023-02-11T17:09:57.489Z,12.87
2023-02-11T17:12:26.818Z,14.19
2023-02-11T17:14:53.995Z,13.93
2023-02-11T17:17:23.023Z,12.78
2023-02-11T17:19:50.511Z,12.30
2023-02-11T17:22:17.870Z,13.50
2023-02-11T17:24:44.654Z,14.32
2023-02-11T17:27:13.591Z,13.38
2023-02-11T17:29:40.368Z,12.37
2023-02-11T17:32:09.130Z,12.70
2023-02-11T17:34:35.881Z,14.13
2023-02-11T17:37:08.269Z,14.10
2023-02-11T17:39:36.917Z,12.93
2023-02-11T17:42:05.302Z,12.40
2023-02-11T17:44:32.974Z,13.63
2023-02-11T17:46:59.642Z,14.48
2023-02-11T17:49:26.934Z,13.48
2023-02-11T17:51:53.496Z,12.50
2023-02-11T17:54:20.317Z,12.99
2023-02-11T17:56:50.534Z,14.39
2023-02-11T17:59:17.389Z,14.11
2023-02-11T18:01:44.496Z,12.94
2023-02-11T18:04:18.395Z,12.50
2023-02-11T18:06:45.697Z,13.85
2023-02-11T18:09:12.599Z,14.56
2023-02-11T18:11:39.938Z,13.50
2023-02-11T18:14:07.770Z,12.52
2023-02-11T18:16:38.122Z,12.89
2023-02-11T18:19:06.901Z,14.34
2023-02-11T18:21:33.716Z,14.36
2023-02-11T18:24:06.040Z,13.18
2023-02-11T18:26:34.268Z,12.51
2023-02-11T18:29:03.251Z,13.65
2023-02-11T18:31:30.127Z,14.53
2023-02-11T18:33:57.348Z,13.56
2023-02-11T18:36:24.101Z,12.57
2023-02-11T18:38:52.744Z,12.86
2023-02-11T18:41:19.893Z,14.32
2023-02-11T18:43:46.508Z,14.22
2023-02-11T18:46:15.141Z,13.07
2023-02-11T18:48:41.830Z,12.54
2023-02-11T18:51:19.944Z,13.77
2023-02-11T18:53:46.654Z,14.60
2023-02-11T18:56:18.557Z,13.58
2023-02-11T18:58:45.288Z,12.57
2023-02-11T19:01:23.739Z,12.98
2023-02-11T19:03:50.921Z,14.51
2023-02-11T19:06:26.970Z,14.76
2023-02-11T19:08:59.221Z,13.54
2023-02-11T19:11:45.580Z,12.61
2023-02-11T19:14:18.118Z,13.33
2023-02-11T19:16:45.924Z,14.69
2023-02-11T19:19:13.520Z,14.09
2023-02-11T19:21:52.133Z,12.98
2023-02-11T19:24:19.450Z,12.59
2023-02-11T19:26:48.653Z,13.95
2023-02-11T19:29:16.239Z,14.63
2023-02-11T19:31:43.447Z,13.59
2023-02-11T19:34:13.370Z,12.60
2023-02-11T19:36:40.691Z,12.54
2023-02-11T19:39:07.458Z,14.03
2023-02-11T19:41:37.758Z,14.74
2023-02-11T19:44:07.243Z,13.68
2023-02-11T19:46:37.782Z,12.65
2023-02-11T19:49:05.148Z,12.86
2023-02-11T19:51:36.757Z,14.34
2023-02-11T19:54:03.647Z,14.61
2023-02-11T19:56:30.440Z,13.45
2023-02-11T19:58:57.435Z,12.57
2023-02-11T20:01:25.226Z,13.20
2023-02-11T20:03:53.952Z,14.60
2023-02-11T20:06:27.569Z,14.30
2023-02-11T20:08:58.775Z,13.14
2023-02-11T20:11:28.256Z,12.45
2023-02-11T20:13:55.404Z,13.56
2023-02-11T20:16:33.957Z,14.58
2023-02-11T20:19:09.776Z,13.60
2023-02-11T20:21:39.298Z,12.62
2023-02-11T20:24:09.307Z,12.75
2023-02-11T20:26:40.234Z,14.28
2023-02-11T20:29:06.910Z,14.46
2023-02-11T20:31:36.532Z,13.32
2023-02-11T20:34:03.880Z,12.44
2023-02-11T20:36:36.918Z,13.01
2023-02-11T20:39:05.966Z,14.51
2023-02-11T20:41:35.405Z,14.44
2023-02-11T20:44:06.826Z,13.25
2023-02-11T20:46:36.238Z,12.37
2023-02-11T20:49:02.948Z,13.02
2023-02-11T20:51:36.661Z,14.51
2023-02-11T20:54:05.690Z,14.43
2023-02-11T20:56:39.417Z,13.24
2023-02-11T20:59:06.307Z,12.31
2023-02-11T21:01:39.948Z,12.59
2023-02-11T21:04:22.054Z,14.15
2023-02-11T21:06:52.600Z,14.73
2023-02-11T21:09:24.653Z,13.57
2023-02-11T21:11:53.619Z,12.52
2023-02-11T21:14:24.325Z,12.39
2023-02-11T21:16:52.254Z,13.86
2023-02-11T21:19:19.249Z,14.58
2023-02-11T21:21:46.015Z,13.53
2023-02-11T21:24:13.036Z,12.57
2023-02-11T21:26:40.114Z,13.00
2023-02-11T21:29:08.163Z,14.44
2023-02-11T21:31:36.109Z,14.35
2023-02-11T21:34:03.896Z,13.18
2023-02-11T21:36:30.815Z,12.31
2023-02-11T21:38:58.093Z,12.71
2023-02-11T21:41:26.751Z,14.20
2023-02-11T21:43:53.491Z,14.69
2023-02-11T21:46:21.154Z,13.55
2023-02-11T21:48:48.456Z,12.56
2023-02-11T21:51:22.900Z,12.24
2023-02-11T21:54:00.529Z,13.62
2023-02-11T21:56:29.865Z,14.45
2023-02-11T21:59:00.396Z,13.40
2023-02-11T22:01:31.386Z,12.38
2023-02-11T22:03:58.842Z,12.25
2023-02-11T22:06:30.705Z,13.68
2023-02-11T22:08:57.575Z,14.44
2023-02-11T22:11:24.725Z,13.42
2023-02-11T22:13:55.657Z,12.38
2023-02-11T22:16:23.205Z,12.43
2023-02-11T22:18:50.867Z,13.90
2023-02-11T22:21:21.666Z,14.46
2023-02-11T22:23:49.023Z,13.33
2023-02-11T22:26:19.674Z,12.32
2023-02-11T22:28:46.890Z,12.58
2023-02-11T22:31:16.955Z,14.01
2023-02-11T22:33:44.109Z,14.09
2023-02-11T22:36:20.859Z,12.93
2023-02-11T22:38:50.216Z,12.07
2023-02-11T22:41:17.878Z,12.92
2023-02-11T22:43:44.974Z,14.17
2023-02-11T22:46:15.638Z,13.61
2023-02-11T22:48:42.593Z,12.48
2023-02-11T22:51:24.974Z,12.18
2023-02-11T22:53:58.377Z,13.63
2023-02-11T22:56:26.114Z,14.15
2023-02-11T22:58:55.594Z,13.01
2023-02-11T23:01:22.338Z,11.97
2023-02-11T23:03:49.120Z,11.74
2023-02-11T23:06:16.666Z,13.06
2023-02-11T23:08:44.538Z,14.13
2023-02-11T23:11:18.241Z,13.54
2023-02-11T23:13:46.661Z,12.35
2023-02-11T23:16:18.009Z,11.48
2023-02-11T23:18:47.705Z,11.36
2023-02-11T23:21:20.565Z,12.83
2023-02-11T23:23:48.980Z,14.02
2023-02-11T23:26:17.781Z,13.31
2023-02-11T23:28:45.697Z,12.13
2023-02-11T23:31:23.622Z,11.57
2023-02-11T23:33:50.979Z,12.80
2023-02-11T23:36:19.702Z,13.88
2023-02-11T23:38:46.623Z,13.08
2023-02-11T23:41:13.768Z,11.96
2023-02-11T23:43:40.739Z,11.48
2023-02-11T23:46:08.134Z,12.69
2023-02-11T23:48:36.147Z,13.67
2023-02-11T23:51:03.716Z,12.78
2023-02-11T23:53:30.519Z,11.72
2023-02-11T23:55:57.344Z,11.25
2023-02-11T23:58:24.224Z,12.48
